createdAt,value
2023-01-04T00:00:16.850Z,4
2023-01-04T00:05:16.739Z,4
2023-01-04T00:10:16.821Z,5
2023-01-04T00:15:16.786Z,5
2023-01-04T00:20:16.899Z,5
2023-01-04T00:25:16.476Z,7
2023-01-04T00:30:16.595Z,6
2023-01-04T00:35:43.726Z,7
2023-01-04T00:40:16.720Z,9
2023-01-04T00:45:16.533Z,9
2023-01-04T00:50:16.674Z,10
2023-01-04T00:55:16.669Z,9
2023-01-04T01:00:16.627Z,8
2023-01-04T01:05:16.737Z,7
2023-01-04T01:10:16.687Z,8
2023-01-04T01:15:16.882Z,9
2023-01-04T01:20:17.007Z,11
2023-01-04T01:25:16.873Z,12
2023-01-04T01:30:16.738Z,11
2023-01-04T01:35:17.137Z,11
2023-01-04T01:40:16.861Z,11
2023-01-04T01:45:16.696Z,11
2023-01-04T01:50:16.992Z,11
2023-01-04T01:55:16.724Z,11
2023-01-04T02:00:16.848Z,10
2023-01-04T02:05:16.919Z,11
2023-01-04T02:10:16.863Z,12
2023-01-04T02:15:16.854Z,12
2023-01-04T02:20:17.012Z,13
2023-01-04T02:25:17.314Z,12
2023-01-04T02:30:16.768Z,12
2023-01-04T02:35:17.015Z,12
2023-01-04T02:40:16.940Z,10
2023-01-04T02:45:16.835Z,10
2023-01-04T02:50:17.313Z,11
2023-01-04T02:55:17.015Z,11
2023-01-04T03:00:18.201Z,10
2023-01-04T03:05:18.088Z,11
2023-01-04T03:10:17.981Z,10
2023-01-04T03:15:17.993Z,10
2023-01-04T03:20:18.006Z,10
2023-01-04T03:25:18.172Z,10
2023-01-04T03:30:18.008Z,11
2023-01-04T03:35:18.576Z,11
2023-01-04T03:40:18.048Z,11
2023-01-04T03:45:18.037Z,12
2023-01-04T03:50:18.401Z,11
2023-01-04T03:55:18.136Z,11
2023-01-04T04:00:18.209Z,11
2023-01-04T04:05:18.156Z,12
2023-01-04T04:10:18.460Z,11
2023-01-04T04:15:18.206Z,10
2023-01-04T04:20:18.449Z,8
2023-01-04T04:25:18.235Z,9
2023-01-04T04:30:18.398Z,8
2023-01-04T04:35:18.276Z,7
2023-01-04T04:40:18.259Z,8
2023-01-04T04:45:16.433Z,8
2023-01-04T04:50:16.255Z,10
2023-01-04T04:55:16.158Z,10
2023-01-04T05:00:17.259Z,10
2023-01-04T05:05:17.554Z,10
2023-01-04T05:10:17.431Z,10
2023-01-04T05:15:17.409Z,8
2023-01-04T05:20:17.442Z,8
2023-01-04T05:25:17.328Z,5
2023-01-04T05:30:17.381Z,6
2023-01-04T05:35:17.682Z,5
2023-01-04T05:40:17.427Z,6
2023-01-04T05:45:17.351Z,7
2023-01-04T05:50:17.772Z,7
2023-01-04T05:55:17.543Z,6
2023-01-04T06:00:17.455Z,6
2023-01-04T06:05:17.582Z,6
2023-01-04T06:10:17.509Z,6
2023-01-04T06:15:17.354Z,5
2023-01-04T06:20:18.416Z,6
2023-01-04T06:25:17.507Z,5
2023-01-04T06:30:17.392Z,5
2023-01-04T06:35:17.589Z,6
2023-01-04T06:40:17.582Z,8
2023-01-04T06:45:17.708Z,8
2023-01-04T06:50:17.635Z,8
2023-01-04T06:55:17.794Z,11
2023-01-04T07:00:17.336Z,12
2023-01-04T07:05:18.864Z,11
2023-01-04T07:10:17.629Z,9
2023-01-04T07:15:38.788Z,8
2023-01-04T07:20:17.817Z,6
2023-01-04T07:25:17.598Z,6
2023-01-04T07:30:17.927Z,7
2023-01-04T07:35:18.130Z,8
2023-01-04T07:40:17.719Z,9
2023-01-04T07:45:17.600Z,9
2023-01-04T07:50:17.791Z,8
2023-01-04T07:55:17.907Z,6
2023-01-04T08:00:17.751Z,5
2023-01-04T08:05:17.987Z,4
2023-01-04T08:10:17.781Z,3
2023-01-04T08:15:17.693Z,4
2023-01-04T08:20:17.858Z,4
2023-01-04T08:25:17.727Z,4
2023-01-04T08:30:17.800Z,4
2023-01-04T08:35:17.908Z,3
2023-01-04T08:40:20.341Z,3
2023-01-04T08:45:17.741Z,4
2023-01-04T08:50:18.143Z,3
2023-01-04T08:55:23.119Z,4
2023-01-04T09:00:17.845Z,5
2023-01-04T09:05:22.986Z,5
2023-01-04T09:10:17.864Z,5
2023-01-04T09:15:18.046Z,6
2023-01-04T09:20:18.159Z,7
2023-01-04T09:25:18.009Z,7
2023-01-04T09:30:17.943Z,7
2023-01-04T09:35:18.041Z,6
2023-01-04T09:40:18.068Z,5
2023-01-04T09:45:25.667Z,4
2023-01-04T09:50:18.891Z,5
2023-01-04T09:55:39.798Z,7
2023-01-04T10:00:18.272Z,8
2023-01-04T10:05:18.307Z,7
2023-01-04T10:10:17.980Z,6
2023-01-04T10:15:18.011Z,5
2023-01-04T10:21:33.924Z,4
2023-01-04T10:25:18.715Z,5
2023-01-04T10:30:18.487Z,7
2023-01-04T10:35:18.366Z,8
2023-01-04T10:40:18.281Z,9
2023-01-04T10:45:18.369Z,9
2023-01-04T10:50:18.227Z,10
2023-01-04T10:55:18.129Z,9
2023-01-04T11:00:18.533Z,9
2023-01-04T11:05:16.416Z,8
2023-01-04T11:10:16.317Z,10
2023-01-04T11:15:16.217Z,9
2023-01-04T11:20:16.591Z,10
2023-01-04T11:25:55.877Z,8
2023-01-04T11:30:16.298Z,7
2023-01-04T11:35:16.453Z,6
2023-01-04T11:40:16.336Z,8
2023-01-04T11:45:16.340Z,7
2023-01-04T11:50:16.487Z,8
2023-01-04T11:55:16.324Z,8
2023-01-04T12:00:16.395Z,8
2023-01-04T12:05:16.312Z,8
2023-01-04T12:10:16.833Z,9
2023-01-04T12:15:16.398Z,9
2023-01-04T12:20:19.390Z,9
2023-01-04T12:25:16.330Z,8
2023-01-04T12:30:16.449Z,8
2023-01-04T12:35:17.488Z,7
2023-01-04T12:40:17.558Z,7
2023-01-04T12:45:16.467Z,8
2023-01-04T12:50:16.631Z,7
2023-01-04T12:55:16.690Z,7
2023-01-04T13:00:16.623Z,8
2023-01-04T13:05:57.038Z,8
2023-01-04T13:10:16.719Z,8
2023-01-04T13:15:19.467Z,6
2023-01-04T13:20:16.705Z,7
2023-01-04T13:25:16.519Z,6
2023-01-04T13:30:16.620Z,5
2023-01-04T13:35:16.884Z,6
2023-01-04T13:40:16.633Z,6
2023-01-04T13:45:19.496Z,6
2023-01-04T13:50:17.295Z,5
2023-01-04T13:55:17.443Z,5
2023-01-04T14:00:16.841Z,5
2023-01-04T14:05:16.974Z,5
2023-01-04T14:10:16.698Z,6
2023-01-04T14:15:16.629Z,6
2023-01-04T14:20:16.913Z,7
2023-01-04T14:25:17.107Z,7
2023-01-04T14:30:16.808Z,7
2023-01-04T14:35:16.783Z,7
2023-01-04T14:40:16.843Z,6
2023-01-04T14:45:16.778Z,6
2023-01-04T14:50:16.994Z,4
2023-01-04T14:55:16.874Z,5
2023-01-04T15:00:19.422Z,5
2023-01-04T15:05:17.321Z,6
2023-01-04T15:10:16.820Z,7
2023-01-04T15:15:16.933Z,7
2023-01-04T15:20:16.857Z,8
2023-01-04T15:25:16.906Z,9
2023-01-04T15:30:17.376Z,9
2023-01-04T15:35:17.168Z,10
2023-01-04T15:40:17.003Z,8
2023-01-04T15:45:16.921Z,6
2023-01-04T15:50:17.022Z,5
2023-01-04T15:55:16.990Z,6
2023-01-04T16:00:17.001Z,6
2023-01-04T16:05:17.060Z,7
2023-01-04T16:10:17.268Z,5
2023-01-04T16:15:17.168Z,6
2023-01-04T16:20:17.436Z,7
2023-01-04T16:25:17.217Z,5
2023-01-04T16:30:17.133Z,6
2023-01-04T16:35:17.556Z,4
2023-01-04T16:40:17.279Z,4
2023-01-04T16:45:17.215Z,4
2023-01-04T16:50:17.249Z,4
2023-01-04T16:55:23.395Z,4
2023-01-04T17:00:17.641Z,4
2023-01-04T17:05:17.127Z,2
2023-01-04T17:10:17.085Z,3
2023-01-04T17:15:42.819Z,3
2023-01-04T17:20:17.667Z,4
2023-01-04T17:25:17.160Z,3
2023-01-04T17:30:17.176Z,4
2023-01-04T17:35:17.571Z,4
2023-01-04T17:40:22.708Z,4
2023-01-04T17:45:17.454Z,4
2023-01-04T17:50:17.354Z,5
2023-01-04T17:55:17.438Z,6
2023-01-04T18:00:17.260Z,5
2023-01-04T18:05:17.329Z,5
2023-01-04T18:10:27.171Z,8
2023-01-04T18:15:17.383Z,9
2023-01-04T18:20:24.661Z,6
2023-01-04T18:25:22.242Z,6
2023-01-04T18:30:17.623Z,6
2023-01-04T18:35:17.456Z,7
2023-01-04T18:40:17.389Z,5
2023-01-04T18:45:17.489Z,5
2023-01-04T18:50:18.980Z,6
2023-01-04T18:55:17.528Z,6
2023-01-04T19:00:17.460Z,7
2023-01-04T19:05:18.851Z,7
2023-01-04T19:10:17.498Z,7
2023-01-04T19:15:17.454Z,8
2023-01-04T19:20:17.705Z,6
2023-01-04T19:25:19.873Z,6
2023-01-04T19:30:18.614Z,6
2023-01-04T19:35:17.585Z,8
2023-01-04T19:40:17.730Z,9
2023-01-04T19:45:17.596Z,10
2023-01-04T19:50:17.684Z,11
2023-01-04T19:55:18.258Z,10
2023-01-04T20:00:17.617Z,10
2023-01-04T20:05:18.012Z,9
2023-01-04T20:10:17.582Z,9
2023-01-04T20:15:17.826Z,10
2023-01-04T20:20:17.917Z,9
2023-01-04T20:25:17.611Z,8
2023-01-04T20:30:17.700Z,6
2023-01-04T20:35:17.894Z,7
2023-01-04T20:40:17.745Z,7
2023-01-04T20:45:17.796Z,6
2023-01-04T20:50:17.963Z,6
2023-01-04T20:55:18.143Z,6
2023-01-04T21:00:17.714Z,6
2023-01-04T21:05:18.086Z,6
2023-01-04T21:10:17.772Z,4
2023-01-04T21:15:18.061Z,4
2023-01-04T21:20:18.652Z,3
2023-01-04T21:25:17.772Z,4
2023-01-04T21:30:17.916Z,5
2023-01-04T21:35:17.919Z,5
2023-01-04T21:40:17.907Z,5
2023-01-04T21:45:17.825Z,3
2023-01-04T21:50:17.922Z,5
2023-01-04T21:55:18.336Z,7
2023-01-04T22:00:17.971Z,5
2023-01-04T22:05:17.975Z,6
2023-01-04T22:10:17.987Z,6
2023-01-04T22:15:18.120Z,7
2023-01-04T22:20:18.112Z,8
2023-01-04T22:25:18.359Z,7
2023-01-04T22:30:18.139Z,6
2023-01-04T22:35:18.629Z,6
2023-01-04T22:40:18.086Z,7
2023-01-04T22:45:18.046Z,6
2023-01-04T22:50:18.146Z,5
2023-01-04T22:55:18.113Z,5
2023-01-04T23:00:18.066Z,6
2023-01-04T23:05:18.488Z,5
2023-01-04T23:10:18.185Z,6
2023-01-04T23:15:18.083Z,4
2023-01-04T23:20:20.439Z,6
2023-01-04T23:25:18.395Z,8
2023-01-04T23:30:18.148Z,7
2023-01-04T23:35:18.349Z,9
2023-01-04T23:40:18.508Z,9
2023-01-04T23:45:16.192Z,8
2023-01-04T23:50:16.638Z,10
2023-01-04T23:55:16.227Z,10
